Time;durP1;ratioP1;P1;durP2;ratioP2;P2;SDS_P1;SDS_P2;PMS_P1;PMS_P2;Temp;Humidity;BMP_temperature;BMP_pressure;BME280_temperature;BME280_humidity;BME280_pressure;Samples;Min_cycle;Max_cycle;Signal;HPM_P1;HPM_P2
2023/06/24 00:01:28;;;;;;;5.28;3.92;;;;;;;18.43;100.00;101057.66;5043900;55;1141261;-75
2023/06/24 00:06:34;;;;;;;4.03;3.62;;;;;;;18.41;100.00;101059.65;5011939;57;1140745;-71
2023/06/24 00:11:40;;;;;;;7.42;4.40;;;;;;;18.44;100.00;101058.00;4991696;57;1140745;-71
2023/06/24 00:16:50;;;;;;;5.08;4.25;;;;;;;18.39;100.00;101059.45;4991232;56;1140817;-77
2023/06/24 00:21:54;;;;;;;9.48;4.75;;;;;;;18.35;100.00;101055.40;5011531;56;1141125;-75
2023/06/24 00:26:59;;;;;;;5.25;4.72;;;;;;;18.32;100.00;101061.94;4990547;56;1140933;-81
2023/06/24 00:32:06;;;;;;;6.17;3.90;;;;;;;18.33;100.00;101068.13;4989324;56;1140835;-70
2023/06/24 00:37:12;;;;;;;9.18;3.94;;;;;;;18.32;100.00;101057.92;5008728;56;1141187;-75
2023/06/24 00:42:18;;;;;;;7.87;4.40;;;;;;;18.25;100.00;101056.34;4989416;56;1141268;-78
2023/06/24 00:47:24;;;;;;;4.60;4.03;;;;;;;18.20;100.00;101053.28;4990351;56;1140828;-78
2023/06/24 00:52:30;;;;;;;6.90;4.20;;;;;;;18.18;100.00;101065.17;4990354;57;1141012;-79
2023/06/24 00:57:37;;;;;;;6.15;4.42;;;;;;;18.15;100.00;101065.47;5013108;56;1141159;-73
2023/06/24 01:02:43;;;;;;;7.65;4.65;;;;;;;18.11;100.00;101071.63;5036570;55;1140787;-76
2023/06/24 01:07:55;;;;;;;6.37;4.12;;;;;;;18.13;100.00;101073.66;4990249;56;1140985;-76
2023/06/24 01:12:58;;;;;;;9.15;4.40;;;;;;;18.15;100.00;101081.54;5010656;56;1140867;-72
2023/06/24 01:18:11;;;;;;;8.00;4.03;;;;;;;18.14;100.00;101087.89;4992689;57;1141013;-79
2023/06/24 01:23:48;;;;;;;7.55;4.53;;;;;;;18.13;100.00;101091.06;4990070;57;1140856;-72
2023/06/24 01:29:22;;;;;;;4.92;4.42;;;;;;;18.11;100.00;101093.05;4941623;57;1141321;-72
2023/06/24 01:34:51;;;;;;;4.50;4.05;;;;;;;18.15;100.00;101093.59;4941378;57;1141064;-76
2023/06/24 01:40:22;;;;;;;8.73;4.45;;;;;;;18.14;100.00;101094.08;4960700;57;1140818;-74
2023/06/24 01:45:32;;;;;;;7.25;3.92;;;;;;;18.12;100.00;101096.56;4898999;57;1141092;-70
2023/06/24 01:50:38;;;;;;;6.00;4.08;;;;;;;18.10;100.00;101095.88;4940958;58;1141287;-73
2023/06/24 01:55:47;;;;;;;5.12;4.40;;;;;;;18.18;100.00;101095.44;4961300;58;1140972;-75
2023/06/24 02:00:55;;;;;;;6.95;4.42;;;;;;;18.13;100.00;101096.41;4987599;57;1141007;-79
2023/06/24 02:06:03;;;;;;;6.14;3.72;;;;;;;18.15;100.00;101097.60;4941212;58;1140871;-76
2023/06/24 02:11:10;;;;;;;4.40;3.50;;;;;;;18.12;100.00;101099.24;4960474;57;1140992;-70
2023/06/24 02:16:18;;;;;;;10.75;4.30;;;;;;;18.10;100.00;101093.20;4942368;58;1140853;-73
2023/06/24 02:21:26;;;;;;;7.53;4.70;;;;;;;17.96;100.00;101095.91;4984456;56;1143408;-78
2023/06/24 02:26:32;;;;;;;4.70;3.33;;;;;;;17.88;100.00;101099.83;4962086;56;1141069;-79
2023/06/24 02:31:38;;;;;;;3.97;3.63;;;;;;;17.87;100.00;101104.34;4973961;56;1140980;-78
2023/06/24 02:36:44;;;;;;;6.05;3.67;;;;;;;17.84;100.00;101113.20;4988039;56;1141020;-77
2023/06/24 02:41:49;;;;;;;8.75;3.60;;;;;;;17.78;100.00;101119.14;4999798;57;1140878;-74
2023/06/24 02:46:57;;;;;;;4.05;3.62;;;;;;;17.78;100.00;101121.81;4994960;56;1141124;-72
2023/06/24 02:52:03;;;;;;;8.00;3.83;;;;;;;17.78;100.00;101122.66;5015839;57;1141412;-78
2023/06/24 02:57:12;;;;;;;5.30;3.95;;;;;;;17.78;100.00;101117.80;4925102;57;1140916;-76
2023/06/24 03:02:20;;;;;;;9.67;4.00;;;;;;;17.84;100.00;101106.50;5084295;55;1141093;-76
2023/06/24 03:07:26;;;;;;;6.55;3.77;;;;;;;17.75;100.00;101116.27;5094101;56;1141070;-71
2023/06/24 03:12:32;;;;;;;5.97;3.92;;;;;;;17.65;100.00;101112.81;5198205;55;1141225;-71
2023/06/24 03:17:39;;;;;;;8.20;3.92;;;;;;;17.54;100.00;101125.88;5042912;56;1141087;-73
2023/06/24 03:22:45;;;;;;;5.37;4.33;;;;;;;17.51;100.00;101142.22;4971095;56;1141168;-75
2023/06/24 03:27:52;;;;;;;5.53;3.80;;;;;;;17.51;100.00;101150.73;4889439;57;1141380;-73
2023/06/24 03:32:58;;;;;;;5.30;4.40;;;;;;;17.49;100.00;101160.73;5033408;57;1140972;-73
2023/06/24 03:38:04;;;;;;;11.22;5.10;;;;;;;17.44;100.00;101174.54;4922493;57;1140842;-71
2023/06/24 03:43:11;;;;;;;9.88;4.50;;;;;;;17.38;100.00;101187.18;5023600;56;1143180;-72
2023/06/24 03:48:17;;;;;;;5.85;4.80;;;;;;;17.38;100.00;101194.36;5118958;55;1141021;-75
2023/06/24 03:53:23;;;;;;;5.03;4.62;;;;;;;17.40;100.00;101194.56;5108578;55;1140842;-73
2023/06/24 03:58:29;;;;;;;10.68;4.78;;;;;;;17.41;100.00;101186.89;5131074;55;1141117;-73
2023/06/24 04:03:35;;;;;;;8.77;5.57;;;;;;;17.42;100.00;101187.70;5133201;55;1143387;-74
2023/06/24 04:08:43;;;;;;;7.43;4.47;;;;;;;17.32;100.00;101180.22;5104054;56;1140953;-77
2023/06/24 04:13:49;;;;;;;9.40;5.63;;;;;;;17.29;100.00;101186.70;5109819;55;1140949;-72
2023/06/24 04:18:54;;;;;;;10.17;5.60;;;;;;;17.32;100.00;101186.91;5168078;55;1140676;-74
2023/06/24 04:24:00;;;;;;;13.83;6.40;;;;;;;17.33;100.00;101190.78;5082830;55;1143217;-73
2023/06/24 04:29:06;;;;;;;7.53;5.62;;;;;;;17.32;100.00;101187.75;5072791;57;1142995;-73
2023/06/24 04:34:12;;;;;;;8.40;5.77;;;;;;;17.33;100.00;101194.79;5057730;57;1140809;-75
2023/06/24 04:39:17;;;;;;;6.85;4.85;;;;;;;17.37;100.00;101200.69;5094247;57;1140951;-70
2023/06/24 04:44:23;;;;;;;10.72;5.58;;;;;;;17.38;100.00;101195.20;5047702;57;1140765;-76
2023/06/24 04:49:29;;;;;;;9.65;5.20;;;;;;;17.38;100.00;101197.88;5003972;56;1143250;-76
2023/06/24 04:54:34;;;;;;;5.90;5.13;;;;;;;17.35;100.00;101194.16;4992378;57;1141157;-78
2023/06/24 04:59:40;;;;;;;5.78;4.95;;;;;;;17.50;100.00;101208.73;4877274;57;1141244;-73
2023/06/24 05:04:46;;;;;;;8.17;6.03;;;;;;;17.55;100.00;101204.28;4841944;59;1141167;-73
2023/06/24 05:09:52;;;;;;;6.57;5.00;;;;;;;17.65;100.00;101214.97;5007586;57;1140801;-80
2023/06/24 05:14:57;;;;;;;7.00;4.50;;;;;;;17.74;100.00;101204.70;4910433;57;1140720;-73
2023/06/24 05:20:04;;;;;;;9.25;5.25;;;;;;;17.85;100.00;101205.37;4817214;58;1140755;-76
2023/06/24 05:25:10;;;;;;;7.95;4.87;;;;;;;17.93;100.00;101212.14;4944546;58;1141184;-76
2023/06/24 05:30:16;;;;;;;12.78;4.45;;;;;;;17.98;100.00;101208.17;5018019;56;1140919;-75
2023/06/24 05:35:21;;;;;;;7.63;5.30;;;;;;;17.92;100.00;101214.47;4951560;56;1143097;-71
2023/06/24 05:40:27;;;;;;;9.25;6.17;;;;;;;17.98;100.00;101209.52;4991359;57;1141027;-77
2023/06/24 05:45:32;;;;;;;5.90;5.22;;;;;;;18.00;100.00;101212.89;5088089;56;1140934;-73
2023/06/24 05:50:38;;;;;;;6.22;4.60;;;;;;;18.05;100.00;101207.41;5087322;56;1140788;-75
2023/06/24 05:55:43;;;;;;;7.00;6.12;;;;;;;18.18;100.00;101213.77;5087649;56;1140891;-77
2023/06/24 06:00:50;;;;;;;12.07;5.60;;;;;;;18.23;100.00;101204.27;5070020;56;1140849;-72
2023/06/24 06:05:55;;;;;;;5.12;3.92;;;;;;;18.32;100.00;101205.70;5068272;56;1143043;-76
2023/06/24 06:11:02;;;;;;;5.83;4.08;;;;;;;18.40;100.00;101204.43;5044332;56;1141105;-73
2023/06/24 19:18:00;;;;;;;6.65;4.03;;;;;;;23.35;70.77;101155.70;5336563;54;46268;-71
2023/06/24 19:23:05;;;;;;;6.15;4.70;;;;;;;23.16;70.86;101161.14;5111036;56;1134519;-68
2023/06/24 19:28:11;;;;;;;9.03;4.30;;;;;;;23.08;70.82;101159.34;5026640;56;1138668;-72
2023/06/24 19:33:17;;;;;;;7.22;4.25;;;;;;;23.13;71.57;101164.20;5031393;56;1228308;-72
2023/06/24 19:38:22;;;;;;;11.75;3.70;;;;;;;23.11;70.71;101172.98;5016095;56;1139031;-78
2023/06/24 19:43:28;;;;;;;6.37;3.92;;;;;;;22.95;70.59;101175.34;5066094;56;1140930;-75
2023/06/24 19:48:34;;;;;;;5.72;3.58;;;;;;;22.89;71.45;101176.09;5063690;56;1138810;-73
2023/06/24 19:53:39;;;;;;;8.07;4.13;;;;;;;22.76;70.77;101182.08;5031950;57;1138798;-76
2023/06/24 19:58:45;;;;;;;4.47;4.15;;;;;;;22.52;70.71;101187.66;5101857;56;1139213;-76
2023/06/24 20:03:50;;;;;;;3.95;3.62;;;;;;;22.32;71.63;101191.34;5078077;56;1139284;-77
2023/06/24 20:08:56;;;;;;;4.78;3.47;;;;;;;22.29;71.75;101191.72;5053118;56;1138807;-71
2023/06/24 20:14:01;;;;;;;4.38;3.98;;;;;;;22.23;71.65;101191.08;5047305;57;1139038;-75
2023/06/24 20:19:08;;;;;;;3.77;3.47;;;;;;;22.08;71.74;101191.00;5062196;57;1139012;-70
2023/06/24 20:24:14;;;;;;;4.10;3.72;;;;;;;22.02;71.84;101192.20;4998546;57;1139044;-74
2023/06/24 20:29:19;;;;;;;11.33;9.10;;;;;;;21.98;72.55;101190.36;4974787;56;1138775;-69
2023/06/24 20:34:25;;;;;;;7.22;4.70;;;;;;;22.10;73.53;101193.02;5061383;56;1140970;-72
2023/06/24 20:39:31;;;;;;;6.12;4.35;;;;;;;22.24;73.68;101195.45;5057632;56;1138774;-76
2023/06/24 20:44:37;;;;;;;5.72;3.85;;;;;;;22.23;72.48;101201.85;5059102;56;1138620;-75
2023/06/24 20:49:43;;;;;;;6.62;6.03;;;;;;;22.17;71.89;101199.86;5010826;56;1138665;-79
2023/06/24 20:54:48;;;;;;;4.22;3.87;;;;;;;22.20;72.50;101206.75;5029528;57;1138855;-77
2023/06/24 20:59:54;;;;;;;7.17;4.58;;;;;;;22.20;72.41;101202.20;5049069;57;1139102;-77
2023/06/24 21:04:59;;;;;;;31.70;18.98;;;;;;;22.23;72.51;101206.41;5056729;56;1138874;-75
2023/06/24 21:10:05;;;;;;;29.60;19.75;;;;;;;22.21;73.69;101206.58;5113085;56;1143143;-73
2023/06/24 21:15:11;;;;;;;32.98;16.70;;;;;;;22.13;74.32;101212.53;5024921;56;1143172;-78
2023/06/24 21:20:17;;;;;;;16.48;11.10;;;;;;;22.05;74.59;101208.86;4943341;57;1143484;-74
2023/06/24 21:25:23;;;;;;;10.60;7.80;;;;;;;21.99;75.16;101207.36;4938561;56;1142903;-76
2023/06/24 21:30:28;;;;;;;12.93;9.33;;;;;;;21.92;74.97;101207.22;4984968;56;1140808;-79
2023/06/24 21:35:34;;;;;;;12.45;7.42;;;;;;;21.81;75.08;101200.88;5011543;57;1141118;-75
2023/06/24 21:40:40;;;;;;;9.40;7.70;;;;;;;21.74;75.17;101209.31;5047677;57;1141209;-76
2023/06/24 21:45:45;;;;;;;16.85;12.28;;;;;;;21.68;75.42;101203.30;5030864;57;1139074;-72
2023/06/24 21:50:51;;;;;;;18.50;10.00;;;;;;;21.57;75.29;101203.15;5031386;57;1142843;-69
2023/06/24 21:55:56;;;;;;;19.23;12.00;;;;;;;21.46;75.55;101198.16;5053705;56;1143298;-74
2023/06/24 22:01:02;;;;;;;18.95;11.68;;;;;;;21.33;75.89;101194.66;5044684;56;1142991;-72
2023/06/24 22:06:08;;;;;;;9.40;7.12;;;;;;;21.17;75.94;101205.43;5024342;56;1142895;-68
2023/06/24 22:11:14;;;;;;;9.88;7.22;;;;;;;21.08;77.26;101211.84;5023145;57;1138905;-76
2023/06/24 22:16:19;;;;;;;11.60;6.80;;;;;;;21.08;78.23;101206.47;5030368;56;1138750;-73
2023/06/24 22:21:25;;;;;;;9.83;6.35;;;;;;;20.73;77.22;101215.72;5081111;56;1141056;-75
2023/06/24 22:26:32;;;;;;;8.10;6.28;;;;;;;20.15;77.51;101220.66;5075582;55;1139037;-72
2023/06/24 22:31:37;;;;;;;8.93;6.22;;;;;;;19.95;79.76;101217.91;5016818;57;1138752;-75
2023/06/24 22:36:43;;;;;;;13.88;5.60;;;;;;;19.87;79.99;101219.20;5017677;56;1138795;-71
2023/06/24 22:41:49;;;;;;;6.73;4.90;;;;;;;19.62;80.04;101227.66;4973167;57;1140857;-71
2023/06/24 22:46:56;;;;;;;13.08;6.90;;;;;;;19.55;81.42;101222.11;4993155;56;1139088;-75
2023/06/24 22:52:03;;;;;;;9.23;7.67;;;;;;;19.69;82.67;101224.70;4972891;57;1140811;-75
2023/06/24 22:57:09;;;;;;;15.83;9.60;;;;;;;19.72;82.85;101220.32;4971947;56;1138923;-74
2023/06/24 23:02:14;;;;;;;12.98;7.95;;;;;;;19.78;83.50;101231.77;5032826;57;1140777;-74
2023/06/24 23:07:22;;;;;;;15.38;8.63;;;;;;;19.77;83.61;101234.11;5055066;57;1140990;-70
2023/06/24 23:12:29;;;;;;;14.20;8.75;;;;;;;19.45;82.38;101225.36;5054684;57;1140864;-72
2023/06/24 23:17:35;;;;;;;16.60;9.57;;;;;;;18.97;83.16;101239.28;5066161;56;1141048;-75
2023/06/24 23:22:41;;;;;;;13.08;9.18;;;;;;;18.61;85.27;101251.39;5162628;56;1140689;-72
2023/06/24 23:27:50;;;;;;;12.25;9.50;;;;;;;18.57;87.66;101243.28;5080238;56;1140931;-71
2023/06/24 23:32:59;;;;;;;15.95;9.85;;;;;;;18.71;89.13;101228.52;5056412;57;1140704;-71
2023/06/24 23:38:04;;;;;;;15.45;9.68;;;;;;;18.93;89.78;101232.57;5056264;57;1141122;-72
2023/06/24 23:43:10;;;;;;;13.10;10.08;;;;;;;19.10;90.05;101228.14;4974327;57;1140997;-76
2023/06/24 23:48:16;;;;;;;15.15;9.93;;;;;;;19.14;89.30;101234.39;4970895;57;1143190;-75
2023/06/24 23:53:21;;;;;;;19.73;10.25;;;;;;;18.98;89.40;101231.09;4989979;57;1141009;-78
2023/06/24 23:58:27;;;;;;;17.00;9.10;;;;;;;18.99;90.32;101219.86;4973122;57;1143088;-78
